createdAt,value
2016-11-14T00:00:04.697Z,1022.94
2016-11-14T00:01:04.675Z,1022.97
2016-11-14T00:02:04.651Z,1022.96
2016-11-14T00:03:04.627Z,1022.96
2016-11-14T00:04:04.604Z,1022.97
2016-11-14T00:05:04.581Z,1023
2016-11-14T00:06:04.556Z,1022.92
2016-11-14T00:07:04.533Z,1022.9
2016-11-14T00:08:04.511Z,1022.92
2016-11-14T00:09:04.487Z,1022.92
2016-11-14T00:10:04.464Z,1022.95
2016-11-14T00:11:04.440Z,1022.92
2016-11-14T00:12:04.415Z,1022.97
2016-11-14T00:13:04.393Z,1022.94
2016-11-14T00:14:04.369Z,1022.97
2016-11-14T00:15:04.346Z,1022.94
2016-11-14T00:16:04.322Z,1022.99
2016-11-14T00:17:04.299Z,1022.98
2016-11-14T00:18:04.273Z,1023.01
2016-11-14T00:19:04.250Z,1023
2016-11-14T00:20:04.277Z,1023.01
2016-11-14T00:21:04.205Z,1023.04
2016-11-14T00:22:04.184Z,1023.07
2016-11-14T00:23:04.159Z,1023.04
2016-11-14T00:24:04.134Z,1023.04
2016-11-14T00:25:04.109Z,1023.03
2016-11-14T00:26:04.086Z,1023
2016-11-14T00:27:04.063Z,1022.96
2016-11-14T00:28:04.040Z,1023.01
2016-11-14T00:29:04.015Z,1023.01
2016-11-14T00:30:03.992Z,1023.01
2016-11-14T00:31:03.968Z,1023.03
2016-11-14T00:32:03.945Z,1023.03
2016-11-14T00:33:03.941Z,1023.01
2016-11-14T00:34:03.899Z,1023.05
2016-11-14T00:35:03.874Z,1023.02
2016-11-14T00:36:03.854Z,1022.99
2016-11-14T00:37:03.827Z,1022.99
2016-11-14T00:38:03.804Z,1023.07
2016-11-14T00:39:03.779Z,1023.02
2016-11-14T00:40:03.755Z,1023.02
2016-11-14T00:41:03.732Z,1022.97
2016-11-14T00:42:03.710Z,1023.03
2016-11-14T00:43:03.687Z,1023.02
2016-11-14T00:44:03.661Z,1023.01
2016-11-14T00:45:03.639Z,1022.99
2016-11-14T00:46:03.614Z,1022.95
2016-11-14T00:47:03.591Z,1022.98
2016-11-14T00:48:03.568Z,1022.97
2016-11-14T00:49:03.544Z,1022.95
2016-11-14T00:50:03.571Z,1022.91
2016-11-14T00:51:03.497Z,1022.92
2016-11-14T00:52:03.474Z,1022.82
2016-11-14T00:53:03.450Z,1022.86
2016-11-14T00:54:03.425Z,1022.82
2016-11-14T00:55:03.408Z,1022.79
2016-11-14T00:56:03.379Z,1022.84
2016-11-14T00:57:03.353Z,1022.85
2016-11-14T00:58:03.330Z,1022.86
2016-11-14T00:59:03.308Z,1022.86
2016-11-14T01:00:03.284Z,1022.84
2016-11-14T01:01:03.259Z,1022.85
2016-11-14T01:02:03.234Z,1022.84
2016-11-14T01:03:03.211Z,1022.85
2016-11-14T01:04:03.190Z,1022.83
2016-11-14T01:05:03.164Z,1022.84
2016-11-14T01:06:03.139Z,1022.84
2016-11-14T01:07:03.115Z,1022.9
2016-11-14T01:08:03.094Z,1022.86
2016-11-14T01:09:03.068Z,1022.9
2016-11-14T01:10:03.044Z,1022.9
2016-11-14T01:11:03.021Z,1022.9
2016-11-14T01:12:02.998Z,1022.93
2016-11-14T01:13:02.973Z,1022.87
2016-11-14T01:14:02.950Z,1022.9
2016-11-14T01:15:02.927Z,1022.92
2016-11-14T01:16:02.901Z,1022.93
2016-11-14T01:17:02.879Z,1022.91
2016-11-14T01:18:02.855Z,1022.95
2016-11-14T01:19:02.829Z,1022.91
2016-11-14T01:20:02.807Z,1022.88
2016-11-14T01:21:02.785Z,1022.9
2016-11-14T01:22:02.759Z,1022.92
2016-11-14T01:23:02.736Z,1022.96
2016-11-14T01:24:02.713Z,1022.95
2016-11-14T01:25:02.687Z,1022.97
2016-11-14T01:26:02.663Z,1022.97
2016-11-14T01:27:02.639Z,1023
2016-11-14T01:28:02.614Z,1022.98
2016-11-14T01:29:02.591Z,1023.01
2016-11-14T01:30:02.568Z,1022.98
2016-11-14T01:31:02.746Z,1022.94
2016-11-14T01:32:02.518Z,1022.96
2016-11-14T01:33:02.496Z,1023
2016-11-14T01:34:02.473Z,1023.01
2016-11-14T01:35:02.446Z,1023.05
2016-11-14T01:36:02.424Z,1023.03
2016-11-14T01:37:02.399Z,1023.06
2016-11-14T01:38:02.376Z,1023.08
2016-11-14T01:39:02.352Z,1023.09
2016-11-14T01:40:02.327Z,1023.08
2016-11-14T01:41:02.305Z,1023.12
2016-11-14T01:42:02.281Z,1023.08
2016-11-14T01:43:02.256Z,1023.07
2016-11-14T01:44:02.231Z,1023.06
2016-11-14T01:45:02.209Z,1023.07
2016-11-14T01:46:02.184Z,1023.1
2016-11-14T01:47:02.160Z,1023.15
2016-11-14T01:48:02.136Z,1023.13
2016-11-14T01:49:02.114Z,1023.14
2016-11-14T01:50:02.088Z,1023.18
2016-11-14T01:51:02.063Z,1023.17
2016-11-14T01:52:02.040Z,1023.17
2016-11-14T01:53:02.017Z,1023.16
2016-11-14T01:54:01.991Z,1023.19
2016-11-14T01:55:01.969Z,1023.14
2016-11-14T01:56:01.946Z,1023.13
2016-11-14T01:57:01.920Z,1023.13
2016-11-14T01:58:01.897Z,1023.15
2016-11-14T01:59:01.873Z,1023.18
2016-11-14T02:00:01.851Z,1023.18
2016-11-14T02:01:01.825Z,1023.2
2016-11-14T02:02:01.802Z,1023.24
2016-11-14T02:03:01.776Z,1023.21
2016-11-14T02:04:01.752Z,1023.27
2016-11-14T02:05:01.729Z,1023.29
2016-11-14T02:06:01.706Z,1023.29
2016-11-14T02:07:01.681Z,1023.26
2016-11-14T02:08:01.656Z,1023.3
2016-11-14T02:09:01.632Z,1023.28
2016-11-14T02:10:01.609Z,1023.26
2016-11-14T02:11:01.584Z,1023.28
2016-11-14T02:12:01.560Z,1023.32
2016-11-14T02:13:01.537Z,1023.33
2016-11-14T02:14:01.514Z,1023.34
2016-11-14T02:15:01.489Z,1023.33
2016-11-14T02:16:01.466Z,1023.32
2016-11-14T02:17:01.443Z,1023.28
2016-11-14T02:18:01.418Z,1023.34
2016-11-14T02:19:01.394Z,1023.31
2016-11-14T02:20:01.373Z,1023.33
2016-11-14T02:21:01.348Z,1023.34
2016-11-14T02:22:01.324Z,1023.34
2016-11-14T02:23:01.296Z,1023.38
2016-11-14T02:24:01.272Z,1023.38
2016-11-14T02:25:01.248Z,1023.41
2016-11-14T02:26:01.222Z,1023.46
2016-11-14T02:27:01.201Z,1023.47
2016-11-14T02:28:01.177Z,1023.46
2016-11-14T02:29:01.151Z,1023.44
2016-11-14T02:30:01.126Z,1023.47
2016-11-14T02:31:01.103Z,1023.42
2016-11-14T02:32:01.084Z,1023.44
2016-11-14T02:33:01.056Z,1023.4
2016-11-14T02:34:01.029Z,1023.41
2016-11-14T02:35:01.005Z,1023.36
2016-11-14T02:36:00.982Z,1023.39
2016-11-14T02:37:00.957Z,1023.36
2016-11-14T02:38:00.934Z,1023.36
2016-11-14T02:39:00.908Z,1023.3
2016-11-14T02:40:00.885Z,1023.33
2016-11-14T02:41:00.861Z,1023.33
2016-11-14T02:42:00.836Z,1023.31
2016-11-14T02:43:00.811Z,1023.28
2016-11-14T02:44:00.787Z,1023.32
2016-11-14T02:45:00.763Z,1023.29
2016-11-14T02:46:00.738Z,1023.29
2016-11-14T02:47:00.715Z,1023.28
2016-11-14T02:48:00.690Z,1023.31
2016-11-14T02:49:00.666Z,1023.31
2016-11-14T02:50:00.642Z,1023.31
2016-11-14T02:51:00.619Z,1023.3
2016-11-14T02:52:00.594Z,1023.31
2016-11-14T02:53:00.570Z,1023.29
2016-11-14T02:54:00.545Z,1023.28
2016-11-14T02:55:00.520Z,1023.32
2016-11-14T02:56:00.496Z,1023.34
2016-11-14T02:57:00.473Z,1023.39
2016-11-14T02:58:00.449Z,1023.39
2016-11-14T02:59:00.423Z,1023.37
2016-11-14T03:00:00.400Z,1023.35
2016-11-14T03:01:00.377Z,1023.33
2016-11-14T03:02:00.351Z,1023.36
2016-11-14T03:03:00.327Z,1023.37
2016-11-14T03:04:00.301Z,1023.37
2016-11-14T03:05:00.278Z,1023.35
2016-11-14T03:06:00.254Z,1023.34
2016-11-14T03:07:00.230Z,1023.35
2016-11-14T03:08:00.206Z,1023.38
2016-11-14T03:09:00.181Z,1023.42
2016-11-14T03:10:00.157Z,1023.42
2016-11-14T03:11:00.155Z,1023.42
2016-11-14T03:12:00.107Z,1023.44
2016-11-14T03:13:00.083Z,1023.46
2016-11-14T03:14:00.059Z,1023.45
2016-11-14T03:15:00.036Z,1023.45
2016-11-14T03:16:00.012Z,1023.42
2016-11-14T03:16:59.986Z,1023.39
2016-11-14T03:17:59.963Z,1023.43
2016-11-14T03:18:59.939Z,1023.4
2016-11-14T03:19:59.914Z,1023.45
2016-11-14T03:20:59.890Z,1023.42
2016-11-14T03:21:59.865Z,1023.42
2016-11-14T03:22:59.841Z,1023.4
2016-11-14T03:23:59.818Z,1023.38
2016-11-14T03:24:59.791Z,1023.38
2016-11-14T03:25:59.768Z,1023.38
2016-11-14T03:26:59.744Z,1023.41
2016-11-14T03:27:59.720Z,1023.36
2016-11-14T03:28:59.695Z,1023.4
2016-11-14T03:29:59.671Z,1023.42
2016-11-14T03:30:59.849Z,1023.41
2016-11-14T03:31:59.621Z,1023.4
2016-11-14T03:32:59.598Z,1023.35
2016-11-14T03:33:59.575Z,1023.34
2016-11-14T03:34:59.549Z,1023.35
2016-11-14T03:35:59.529Z,1023.34
2016-11-14T03:36:59.502Z,1023.36
2016-11-14T03:37:59.477Z,1023.37
2016-11-14T03:38:59.451Z,1023.36
2016-11-14T03:39:59.427Z,1023.35
2016-11-14T03:40:59.403Z,1023.33
2016-11-14T03:41:59.382Z,1023.34
2016-11-14T03:42:59.355Z,1023.35
2016-11-14T03:43:59.333Z,1023.38
2016-11-14T03:44:59.311Z,1023.29
2016-11-14T03:45:59.288Z,1023.34
2016-11-14T03:46:59.257Z,1023.33
2016-11-14T03:47:59.233Z,1023.38
2016-11-14T03:48:59.211Z,1023.34
2016-11-14T03:49:59.186Z,1023.36
2016-11-14T03:50:59.160Z,1023.35
2016-11-14T03:51:59.136Z,1023.39
2016-11-14T03:52:59.112Z,1023.38
2016-11-14T03:53:59.088Z,1023.36
2016-11-14T03:54:59.066Z,1023.39
2016-11-14T03:55:59.039Z,1023.44
2016-11-14T03:56:59.014Z,1023.44
2016-11-14T03:57:58.993Z,1023.45
2016-11-14T03:58:58.966Z,1023.51
2016-11-14T03:59:58.942Z,1023.46
2016-11-14T04:00:58.917Z,1023.47
2016-11-14T04:01:58.895Z,1023.45
2016-11-14T04:02:58.870Z,1023.45
2016-11-14T04:03:58.844Z,1023.52
2016-11-14T04:04:58.820Z,1023.47
2016-11-14T04:05:58.795Z,1023.48
2016-11-14T04:06:58.772Z,1023.49
2016-11-14T04:07:58.746Z,1023.51
2016-11-14T04:08:58.723Z,1023.47
2016-11-14T04:09:58.697Z,1023.49
2016-11-14T04:10:58.673Z,1023.52
2016-11-14T04:11:58.651Z,1023.54
2016-11-14T04:12:58.624Z,1023.55
2016-11-14T04:13:58.600Z,1023.51
2016-11-14T04:14:58.576Z,1023.47
2016-11-14T04:15:58.550Z,1023.54
2016-11-14T04:16:58.529Z,1023.51
2016-11-14T04:17:58.502Z,1023.49
2016-11-14T04:18:58.478Z,1023.49
2016-11-14T04:19:58.453Z,1023.48
2016-11-14T04:20:58.432Z,1023.5
2016-11-14T04:21:58.436Z,1023.51
2016-11-14T04:22:58.380Z,1023.5
2016-11-14T04:23:58.356Z,1023.49
2016-11-14T04:24:58.332Z,1023.46
2016-11-14T04:25:58.309Z,1023.45
2016-11-14T04:26:58.283Z,1023.48
2016-11-14T04:27:58.258Z,1023.51
2016-11-14T04:28:58.234Z,1023.54
2016-11-14T04:29:58.209Z,1023.54
2016-11-14T04:30:58.184Z,1023.54
2016-11-14T04:31:58.160Z,1023.53
2016-11-14T04:32:58.136Z,1023.54
2016-11-14T04:33:58.110Z,1023.57
2016-11-14T04:34:58.088Z,1023.58
2016-11-14T04:35:58.062Z,1023.61
2016-11-14T04:36:58.039Z,1023.61
2016-11-14T04:37:58.012Z,1023.64
2016-11-14T04:38:57.989Z,1023.63
2016-11-14T04:39:57.964Z,1023.61
2016-11-14T04:40:57.940Z,1023.6
2016-11-14T04:41:57.915Z,1023.6
2016-11-14T04:42:57.891Z,1023.54
2016-11-14T04:43:57.867Z,1023.49
2016-11-14T04:44:57.842Z,1023.52
2016-11-14T04:45:57.817Z,1023.55
2016-11-14T04:46:57.793Z,1023.52
2016-11-14T04:47:57.769Z,1023.57
2016-11-14T04:48:57.744Z,1023.6
2016-11-14T04:49:57.719Z,1023.61
2016-11-14T04:50:57.696Z,1023.58
2016-11-14T04:51:57.670Z,1023.61
2016-11-14T04:52:57.645Z,1023.58
2016-11-14T04:53:57.621Z,1023.6
2016-11-14T04:54:57.597Z,1023.6
2016-11-14T04:55:57.571Z,1023.62
2016-11-14T04:56:57.546Z,1023.64
2016-11-14T04:57:57.525Z,1023.69
2016-11-14T04:58:57.499Z,1023.69
2016-11-14T04:59:57.473Z,1023.66
2016-11-14T05:00:57.450Z,1023.64
2016-11-14T05:01:57.425Z,1023.63
2016-11-14T05:02:57.400Z,1023.67
2016-11-14T05:03:57.378Z,1023.63
2016-11-14T05:04:57.353Z,1023.62
2016-11-14T05:05:57.328Z,1023.57
2016-11-14T05:06:57.302Z,1023.58
2016-11-14T05:07:57.276Z,1023.55
2016-11-14T05:08:57.264Z,1023.54
2016-11-14T05:09:57.231Z,1023.58
2016-11-14T05:10:57.207Z,1023.57
2016-11-14T05:11:57.178Z,1023.65
2016-11-14T05:12:57.153Z,1023.7
2016-11-14T05:13:57.129Z,1023.73
2016-11-14T05:14:57.105Z,1023.75
2016-11-14T05:15:57.080Z,1023.81
2016-11-14T05:16:57.055Z,1023.84
2016-11-14T05:17:57.031Z,1023.83
2016-11-14T05:18:57.006Z,1023.86
2016-11-14T05:19:56.983Z,1023.86
2016-11-14T05:20:56.958Z,1023.87
2016-11-14T05:21:56.934Z,1023.85
2016-11-14T05:22:56.917Z,1023.85
2016-11-14T05:23:56.884Z,1023.89
2016-11-14T05:24:56.860Z,1023.9
2016-11-14T05:25:56.835Z,1023.86
2016-11-14T05:26:56.810Z,1023.92
2016-11-14T05:27:56.787Z,1023.91
2016-11-14T05:28:56.762Z,1023.89
2016-11-14T05:29:56.737Z,1023.89
2016-11-14T05:30:56.713Z,1023.89
2016-11-14T05:31:56.890Z,1023.86
2016-11-14T05:32:56.663Z,1023.85
2016-11-14T05:33:56.639Z,1023.84
2016-11-14T05:34:56.613Z,1023.82
2016-11-14T05:35:56.589Z,1023.82
2016-11-14T05:36:56.564Z,1023.83
2016-11-14T05:37:56.540Z,1023.82
2016-11-14T05:38:56.515Z,1023.76
2016-11-14T05:39:56.494Z,1023.78
2016-11-14T05:40:56.466Z,1023.78
2016-11-14T05:41:56.440Z,1023.8
2016-11-14T05:42:56.417Z,1023.89
2016-11-14T05:43:56.391Z,1023.87
2016-11-14T05:44:56.366Z,1023.91
2016-11-14T05:45:56.343Z,1023.97
2016-11-14T05:46:56.316Z,1024
2016-11-14T05:47:56.293Z,1023.99
2016-11-14T05:48:56.268Z,1024
2016-11-14T05:49:56.243Z,1024.02
2016-11-14T05:50:56.218Z,1023.97
2016-11-14T05:51:56.193Z,1023.97
2016-11-14T05:52:56.171Z,1023.97
2016-11-14T05:53:56.144Z,1023.91
2016-11-14T05:54:56.120Z,1023.94
2016-11-14T05:55:56.094Z,1023.94
2016-11-14T05:56:56.070Z,1023.98
2016-11-14T05:57:56.047Z,1023.96
2016-11-14T05:58:56.021Z,1024.03
2016-11-14T05:59:55.996Z,1023.96
2016-11-14T06:00:55.972Z,1023.91
2016-11-14T06:01:55.945Z,1023.93
2016-11-14T06:02:55.922Z,1023.94
2016-11-14T06:03:55.898Z,1023.96
2016-11-14T06:04:55.872Z,1023.96
2016-11-14T06:05:55.847Z,1023.97
2016-11-14T06:06:55.823Z,1024.04
2016-11-14T06:07:55.800Z,1023.98
2016-11-14T06:08:55.779Z,1023.96
2016-11-14T06:09:55.771Z,1023.99
2016-11-14T06:10:55.724Z,1024.04
2016-11-14T06:11:55.701Z,1024.05
2016-11-14T06:12:55.674Z,1024.05
2016-11-14T06:13:55.650Z,1024.07
2016-11-14T06:14:55.625Z,1024.12
2016-11-14T06:15:55.599Z,1024.1
2016-11-14T06:16:55.578Z,1024.14
2016-11-14T06:17:55.551Z,1024.13
2016-11-14T06:18:55.526Z,1024.14
2016-11-14T06:19:55.501Z,1024.12
2016-11-14T06:20:55.475Z,1024.12
2016-11-14T06:21:55.452Z,1024.11
2016-11-14T06:22:55.428Z,1024.08
2016-11-14T06:23:55.402Z,1024.07
2016-11-14T06:24:55.430Z,1024.11
2016-11-14T06:25:55.399Z,1024.1
2016-11-14T06:26:55.329Z,1024.11
2016-11-14T06:27:55.302Z,1024.14
2016-11-14T06:28:55.277Z,1024.15
2016-11-14T06:29:55.304Z,1024.22
2016-11-14T06:30:55.227Z,1024.19
2016-11-14T06:31:55.204Z,1024.23
2016-11-14T06:32:55.181Z,1024.26
2016-11-14T06:33:55.154Z,1024.24
2016-11-14T06:34:55.128Z,1024.34
2016-11-14T06:35:55.104Z,1024.35
2016-11-14T06:36:55.082Z,1024.4
2016-11-14T06:37:55.055Z,1024.41
2016-11-14T06:38:55.030Z,1024.4
2016-11-14T06:39:55.005Z,1024.41
2016-11-14T06:40:54.983Z,1024.39
2016-11-14T06:41:54.955Z,1024.38
2016-11-14T06:42:54.931Z,1024.43
2016-11-14T06:43:54.908Z,1024.4
2016-11-14T06:44:54.882Z,1024.39
2016-11-14T06:45:54.857Z,1024.4
2016-11-14T06:46:54.832Z,1024.4
2016-11-14T06:47:54.808Z,1024.41
2016-11-14T06:48:54.781Z,1024.44
2016-11-14T06:49:54.758Z,1024.41
2016-11-14T06:50:54.735Z,1024.38
2016-11-14T06:51:54.710Z,1024.39
2016-11-14T06:52:54.683Z,1024.37
2016-11-14T06:53:54.658Z,1024.39
2016-11-14T06:54:54.634Z,1024.42
2016-11-14T06:55:54.609Z,1024.45
2016-11-14T06:56:54.585Z,1024.43
2016-11-14T06:57:54.561Z,1024.45
2016-11-14T06:58:54.536Z,1024.47
2016-11-14T06:59:54.509Z,1024.47
2016-11-14T07:00:54.486Z,1024.49
2016-11-14T07:01:54.461Z,1024.46
2016-11-14T07:02:54.437Z,1024.45
2016-11-14T07:03:54.409Z,1024.47
2016-11-14T07:04:54.385Z,1024.5
2016-11-14T07:05:54.364Z,1024.54
2016-11-14T07:06:54.336Z,1024.5
2016-11-14T07:07:54.311Z,1024.46
2016-11-14T07:08:54.286Z,1024.45
2016-11-14T07:09:54.263Z,1024.43
2016-11-14T07:10:54.236Z,1024.46
2016-11-14T07:11:54.213Z,1024.47
2016-11-14T07:12:54.187Z,1024.44
2016-11-14T07:13:54.163Z,1024.45
2016-11-14T07:14:54.140Z,1024.44
2016-11-14T07:15:54.113Z,1024.46
2016-11-14T07:16:54.090Z,1024.49
2016-11-14T07:17:54.063Z,1024.54
2016-11-14T07:18:54.044Z,1024.58
2016-11-14T07:19:54.015Z,1024.55
2016-11-14T07:20:53.990Z,1024.53
2016-11-14T07:21:53.989Z,1024.54
2016-11-14T07:22:53.942Z,1024.51
2016-11-14T07:23:53.967Z,1024.56
2016-11-14T07:24:53.894Z,1024.53
2016-11-14T07:25:53.868Z,1024.56
2016-11-14T07:26:53.845Z,1024.59
2016-11-14T07:27:53.820Z,1024.58
2016-11-14T07:28:53.794Z,1024.59
2016-11-14T07:29:53.769Z,1024.65
2016-11-14T07:30:53.745Z,1024.65
2016-11-14T07:31:53.922Z,1024.68
2016-11-14T07:32:53.696Z,1024.67
2016-11-14T07:33:53.673Z,1024.72
2016-11-14T07:34:53.648Z,1024.71
2016-11-14T07:35:53.627Z,1024.8
2016-11-14T07:36:53.598Z,1024.83
2016-11-14T07:37:53.575Z,1024.85
2016-11-14T07:38:53.550Z,1024.9
2016-11-14T07:39:53.523Z,1024.88
2016-11-14T07:40:53.501Z,1024.94
2016-11-14T07:41:53.475Z,1024.91
2016-11-14T07:42:53.452Z,1024.93
2016-11-14T07:43:53.427Z,1024.95
2016-11-14T07:44:53.404Z,1024.96
2016-11-14T07:45:53.378Z,1024.99
2016-11-14T07:46:53.369Z,1025.06
2016-11-14T07:47:53.333Z,1025.09
2016-11-14T07:48:53.306Z,1025.06
2016-11-14T07:49:53.286Z,1025.1
2016-11-14T07:50:53.258Z,1025.14
2016-11-14T07:51:53.233Z,1025.14
2016-11-14T07:52:53.212Z,1025.13
2016-11-14T07:53:53.185Z,1025.15
2016-11-14T07:54:53.158Z,1025.13
2016-11-14T07:55:53.143Z,1025.16
2016-11-14T07:56:53.150Z,1025.18
2016-11-14T07:57:53.087Z,1025.18
2016-11-14T07:58:53.066Z,1025.15
2016-11-14T07:59:53.039Z,1025.18
2016-11-14T08:00:53.015Z,1025.16
2016-11-14T08:01:52.993Z,1025.17
2016-11-14T08:02:52.967Z,1025.18
2016-11-14T08:03:52.942Z,1025.12
2016-11-14T08:04:52.920Z,1025.15
2016-11-14T08:05:52.895Z,1025.11
2016-11-14T08:06:52.872Z,1025.06
2016-11-14T08:07:52.847Z,1025.07
2016-11-14T08:08:52.823Z,1025.03
2016-11-14T08:09:52.800Z,1025.05
2016-11-14T08:10:52.775Z,1025.04
2016-11-14T08:11:52.752Z,1025.09
2016-11-14T08:12:52.728Z,1025.09
2016-11-14T08:13:52.706Z,1025.09
2016-11-14T08:14:52.682Z,1025.07
2016-11-14T08:15:52.658Z,1025.07
2016-11-14T08:16:52.635Z,1025.09
2016-11-14T08:17:52.611Z,1025.08
2016-11-14T08:18:52.589Z,1025.09
2016-11-14T08:19:52.565Z,1025.09
2016-11-14T08:20:52.543Z,1025.07
2016-11-14T08:21:52.518Z,1025.08
2016-11-14T08:22:52.505Z,1025.09
2016-11-14T08:23:52.471Z,1025.1
2016-11-14T08:24:52.451Z,1025.09
2016-11-14T08:25:52.426Z,1025.12
2016-11-14T08:26:52.404Z,1025.09
2016-11-14T08:27:52.379Z,1025.1
2016-11-14T08:28:52.357Z,1025.09
2016-11-14T08:29:52.341Z,1025.06
2016-11-14T08:30:52.311Z,1025.07
2016-11-14T08:31:52.289Z,1025.07
2016-11-14T08:32:52.265Z,1025.11
2016-11-14T08:33:52.243Z,1025.1
2016-11-14T08:34:52.221Z,1025.07
2016-11-14T08:35:52.198Z,1025.09
2016-11-14T08:36:52.176Z,1025.1
2016-11-14T08:37:52.158Z,1025.11
2016-11-14T08:38:52.130Z,1025.08
2016-11-14T08:39:52.107Z,1025.04
2016-11-14T08:40:52.084Z,1025.05
2016-11-14T08:41:52.062Z,1025.06
2016-11-14T08:42:52.044Z,1025.06
2016-11-14T08:43:52.024Z,1025.02
2016-11-14T08:44:51.997Z,1025
2016-11-14T08:45:51.972Z,1024.98
2016-11-14T08:46:51.950Z,1025
2016-11-14T08:47:51.927Z,1024.98
2016-11-14T08:48:51.912Z,1024.94
2016-11-14T08:49:51.882Z,1024.91
2016-11-14T08:50:51.862Z,1024.83
2016-11-14T08:51:51.839Z,1024.83
2016-11-14T08:52:51.820Z,1024.8
2016-11-14T08:53:51.793Z,1024.81
2016-11-14T08:54:51.773Z,1024.76
2016-11-14T08:55:51.751Z,1024.75
2016-11-14T08:56:51.728Z,1024.74
2016-11-14T08:57:51.705Z,1024.68
2016-11-14T08:58:51.683Z,1024.64
2016-11-14T08:59:51.661Z,1024.66
2016-11-14T09:00:51.638Z,1024.69
2016-11-14T09:01:51.617Z,1024.73
2016-11-14T09:02:51.597Z,1024.75
2016-11-14T09:03:51.573Z,1024.8
2016-11-14T09:04:51.552Z,1024.81
2016-11-14T09:05:51.534Z,1024.79
2016-11-14T09:06:51.518Z,1024.77
2016-11-14T09:07:51.486Z,1024.78
2016-11-14T09:08:51.482Z,1024.73
2016-11-14T09:09:51.448Z,1024.74
2016-11-14T09:10:51.425Z,1024.79
2016-11-14T09:11:51.406Z,1024.78
2016-11-14T09:12:51.379Z,1024.78
2016-11-14T09:13:51.359Z,1024.77
2016-11-14T09:14:51.339Z,1024.8
2016-11-14T09:15:51.318Z,1024.87
2016-11-14T09:16:51.296Z,1024.86
2016-11-14T09:17:51.276Z,1024.79
2016-11-14T09:18:51.253Z,1024.83
2016-11-14T09:19:51.234Z,1024.82
2016-11-14T09:20:51.214Z,1024.83
2016-11-14T09:21:51.195Z,1024.85
2016-11-14T09:22:51.174Z,1024.89
2016-11-14T09:23:51.154Z,1024.93
2016-11-14T09:24:51.143Z,1024.92
2016-11-14T09:25:51.118Z,1024.93
2016-11-14T09:26:51.097Z,1024.96
2016-11-14T09:27:51.084Z,1024.91
2016-11-14T09:28:51.063Z,1024.92
2016-11-14T09:29:51.076Z,1024.92
2016-11-14T09:30:51.028Z,1024.93
2016-11-14T09:31:51.215Z,1024.95
2016-11-14T09:32:50.993Z,1024.98
2016-11-14T09:33:50.976Z,1025.06
2016-11-14T09:34:50.958Z,1025.06
2016-11-14T09:35:50.942Z,1025.09
2016-11-14T09:36:50.924Z,1025.08
2016-11-14T09:37:50.909Z,1025.15
2016-11-14T09:38:50.892Z,1025.1
2016-11-14T09:39:50.875Z,1025.06
2016-11-14T09:40:50.860Z,1025.09
2016-11-14T09:41:50.843Z,1025.11
2016-11-14T09:42:50.828Z,1025.05
2016-11-14T09:43:50.813Z,1025.08
2016-11-14T09:44:50.798Z,1025.07
2016-11-14T09:45:50.781Z,1025.08
2016-11-14T09:46:50.768Z,1025.05
2016-11-14T09:47:50.751Z,1025.06
2016-11-14T09:48:50.737Z,1024.99
2016-11-14T09:49:50.722Z,1024.98
2016-11-14T09:50:50.707Z,1024.99
2016-11-14T09:51:50.693Z,1024.94
2016-11-14T09:52:50.677Z,1024.99
2016-11-14T09:53:50.665Z,1024.99
2016-11-14T09:54:50.649Z,1024.97
2016-11-14T09:55:50.633Z,1025
2016-11-14T09:56:50.622Z,1024.98
2016-11-14T09:57:50.605Z,1024.95
2016-11-14T09:58:50.590Z,1024.95
2016-11-14T09:59:50.576Z,1025
2016-11-14T10:00:50.561Z,1025
2016-11-14T10:01:50.547Z,1024.95
2016-11-14T10:02:50.532Z,1024.94
2016-11-14T10:03:50.526Z,1024.88
2016-11-14T10:04:50.507Z,1024.9
2016-11-14T10:05:50.489Z,1024.84
2016-11-14T10:06:50.476Z,1024.83
2016-11-14T10:07:50.460Z,1024.86
2016-11-14T10:08:50.446Z,1024.84
2016-11-14T10:09:50.431Z,1024.87
2016-11-14T10:10:50.416Z,1024.82
2016-11-14T10:11:50.400Z,1024.8
2016-11-14T10:12:50.385Z,1024.76
2016-11-14T10:13:50.369Z,1024.72
2016-11-14T10:14:50.354Z,1024.78
2016-11-14T10:15:50.339Z,1024.76
2016-11-14T10:16:50.324Z,1024.75
2016-11-14T10:17:50.307Z,1024.72
2016-11-14T10:18:50.292Z,1024.71
2016-11-14T10:19:50.277Z,1024.67
2016-11-14T10:20:50.262Z,1024.7
2016-11-14T10:21:50.247Z,1024.63
2016-11-14T10:22:50.233Z,1024.65
2016-11-14T10:23:50.218Z,1024.61
2016-11-14T10:24:50.200Z,1024.61
2016-11-14T10:25:50.185Z,1024.63
2016-11-14T10:26:50.168Z,1024.61
2016-11-14T10:27:50.154Z,1024.62
2016-11-14T10:28:50.140Z,1024.62
2016-11-14T10:29:50.126Z,1024.61
2016-11-14T10:30:50.114Z,1024.58
2016-11-14T10:31:50.093Z,1024.54
2016-11-14T10:32:50.078Z,1024.52
2016-11-14T10:33:50.062Z,1024.54
2016-11-14T10:34:50.048Z,1024.49
2016-11-14T10:35:50.031Z,1024.55
2016-11-14T10:36:50.017Z,1024.57
2016-11-14T10:37:50.003Z,1024.56
2016-11-14T10:38:49.985Z,1024.51
2016-11-14T10:39:49.972Z,1024.55
2016-11-14T10:40:49.957Z,1024.48
2016-11-14T10:41:49.942Z,1024.52
2016-11-14T10:42:49.927Z,1024.48
2016-11-14T10:43:49.913Z,1024.42
2016-11-14T10:44:49.900Z,1024.45
2016-11-14T10:45:49.883Z,1024.45
2016-11-14T10:46:49.868Z,1024.42
2016-11-14T10:47:49.857Z,1024.43
2016-11-14T10:48:49.840Z,1024.41
2016-11-14T10:49:49.825Z,1024.34
2016-11-14T10:50:49.813Z,1024.38
2016-11-14T10:51:49.797Z,1024.34
2016-11-14T10:52:49.783Z,1024.29
2016-11-14T10:53:49.767Z,1024.24
2016-11-14T10:54:49.753Z,1024.25
2016-11-14T10:55:49.741Z,1024.24
2016-11-14T10:56:49.726Z,1024.19
2016-11-14T10:57:49.712Z,1024.14
2016-11-14T10:58:49.699Z,1024.16
2016-11-14T10:59:49.683Z,1024.13
2016-11-14T11:00:49.670Z,1024.16
2016-11-14T11:01:49.654Z,1024.13
2016-11-14T11:02:49.661Z,1024.13
2016-11-14T11:03:49.627Z,1024.13
2016-11-14T11:04:49.611Z,1024.09
2016-11-14T11:05:49.599Z,1024.11
2016-11-14T11:06:49.584Z,1024.06
2016-11-14T11:07:49.570Z,1024.07
2016-11-14T11:08:49.555Z,1024.05
2016-11-14T11:09:49.541Z,1024.02
2016-11-14T11:10:49.527Z,1023.98
2016-11-14T11:11:49.512Z,1023.97
2016-11-14T11:12:49.497Z,1023.94
2016-11-14T11:13:49.484Z,1023.95
2016-11-14T11:14:49.471Z,1023.9
2016-11-14T11:15:49.455Z,1023.91
2016-11-14T11:16:49.443Z,1023.93
2016-11-14T11:17:49.428Z,1023.89
2016-11-14T11:18:49.414Z,1023.89
2016-11-14T11:19:49.399Z,1023.9
2016-11-14T11:20:49.387Z,1023.89
2016-11-14T11:21:49.371Z,1023.89
2016-11-14T11:22:49.357Z,1023.92
2016-11-14T11:23:49.342Z,1023.9
2016-11-14T11:24:49.330Z,1023.88
2016-11-14T11:25:49.315Z,1023.87
2016-11-14T11:26:49.300Z,1023.91
2016-11-14T11:27:49.289Z,1023.92
2016-11-14T11:28:49.272Z,1023.91
2016-11-14T11:29:49.257Z,1023.94
2016-11-14T11:30:49.243Z,1023.97
2016-11-14T11:31:49.432Z,1023.94
2016-11-14T11:32:49.215Z,1023.94
2016-11-14T11:33:49.200Z,1023.91
2016-11-14T11:34:49.188Z,1023.91
2016-11-14T11:35:49.171Z,1023.84
2016-11-14T11:36:49.160Z,1023.88
2016-11-14T11:37:49.143Z,1023.87
2016-11-14T11:38:49.128Z,1023.82
2016-11-14T11:39:49.115Z,1023.85
2016-11-14T11:40:49.099Z,1023.82
2016-11-14T11:41:49.085Z,1023.82
2016-11-14T11:42:49.072Z,1023.81
2016-11-14T11:43:49.059Z,1023.76
2016-11-14T11:44:49.042Z,1023.82
2016-11-14T11:45:49.034Z,1023.77
2016-11-14T11:46:49.013Z,1023.82
2016-11-14T11:47:49.002Z,1023.8
2016-11-14T11:48:48.982Z,1023.83
2016-11-14T11:49:48.976Z,1023.85
2016-11-14T11:50:48.954Z,1023.85
2016-11-14T11:51:48.950Z,1023.83
2016-11-14T11:52:48.933Z,1023.76
2016-11-14T11:53:48.927Z,1023.73
2016-11-14T11:54:48.894Z,1023.72
2016-11-14T11:55:48.879Z,1023.65
2016-11-14T11:56:48.864Z,1023.61
2016-11-14T11:57:48.858Z,1023.55
2016-11-14T11:58:48.835Z,1023.51
2016-11-14T11:59:48.829Z,1023.5
2016-11-14T12:00:48.803Z,1023.47
2016-11-14T12:01:48.791Z,1023.45
2016-11-14T12:02:48.771Z,1023.52
2016-11-14T12:03:48.757Z,1023.51
2016-11-14T12:04:48.742Z,1023.52
2016-11-14T12:05:48.726Z,1023.55
2016-11-14T12:06:48.709Z,1023.53
2016-11-14T12:07:48.694Z,1023.54